Terminal Aerodrome Forecast
Issued by NWS Cleveland, OH

Home | Current Version | Previous Version | Text Only | Print | Product List | Glossary On
Versions: 1 2 3 4 5 6 7 8 9 10 11 12 13
285
FTUS41 KCLE 232329
TAFYNG
TAF
KYNG 232329Z 2400/2424 01008KT P6SM BKN250
     FM240400 07005KT P6SM SKC
     FM241500 09010G20KT P6SM OVC250
     FM242100 10010G20KT P6SM OVC090=

USA.gov is the U.S. government's official web portal to all federal, state and local government web resources and services.